Terminal Aerodrome Forecast
Issued by NWS

Current Version | Previous Version | Graphics & Text | Print | Product List | Glossary On
Versions: 1 2 3 4 5 6 7 8 9 10 11 12 13 14 15 16 17 18 19 20 21 22 23 24 25 26 27 28 29 30 31 32
084
FTUS41 KRNK 151135
TAFLWB
TAF
KLWB 151135Z 1512/1612 VRB03KT P6SM OVC030
     FM152000 28010KT P6SM BKN040
     FM152100 28010KT P6SM SCT040
     FM160300 29012G22KT P6SM BKN035
     FM161000 28011KT P6SM SCT035=

USA.gov is the U.S. government's official web portal to all federal, state and local government web resources and services.